Time;durP1;ratioP1;P1;durP2;ratioP2;P2;SDS_P1;SDS_P2;PMS_P1;PMS_P2;Temp;Humidity;BMP_temperature;BMP_pressure;BME280_temperature;BME280_humidity;BME280_pressure;Samples;Min_cycle;Max_cycle;Signal;HPM_P1;HPM_P2
2021/07/28 00:02:09;;;;;;;18.20;4.93;;;;;;;;;;5015112;28;20026;-64
2021/07/28 00:04:34;;;;;;;32.88;6.57;;;;;;;;;;5014696;28;20405;-64
2021/07/28 00:07:00;;;;;;;25.38;6.55;;;;;;;;;;5014973;28;20014;-64
2021/07/28 00:09:27;;;;;;;28.10;6.38;;;;;;;;;;5014977;28;20018;-64
2021/07/28 00:11:52;;;;;;;22.48;5.28;;;;;;;;;;5014880;28;20425;-64
2021/07/28 00:14:19;;;;;;;23.90;5.90;;;;;;;;;;5014766;28;20033;-64
2021/07/28 00:16:44;;;;;;;15.85;5.30;;;;;;;;;;5014753;28;20026;-64
2021/07/28 00:19:20;;;;;;;20.77;5.80;;;;;;;;;;5014490;28;20422;-64
2021/07/28 00:24:33;;;;;;;17.63;5.93;;;;;;;;;;5014747;28;20033;-64
2021/07/28 00:27:01;;;;;;;14.23;5.55;;;;;;;;;;5014464;28;20022;-64
2021/07/28 00:29:27;;;;;;;24.85;6.43;;;;;;;;;;5014403;28;20021;-65
2021/07/28 00:31:53;;;;;;;18.48;5.43;;;;;;;;;;5014402;28;20061;-64
2021/07/28 00:34:19;;;;;;;28.13;5.60;;;;;;;;;;5014291;28;20050;-64
2021/07/28 00:36:45;;;;;;;23.65;6.28;;;;;;;;;;4996656;28;20041;-64
2021/07/28 00:39:10;;;;;;;20.30;5.68;;;;;;;;;;5014359;28;20029;-64
2021/07/28 00:41:40;;;;;;;18.80;5.80;;;;;;;;;;5014381;28;20477;-65
2021/07/28 00:44:07;;;;;;;24.67;7.45;;;;;;;;;;5014137;28;20049;-64
2021/07/28 00:46:33;;;;;;;18.88;6.43;;;;;;;;;;5014240;28;20022;-64
2021/07/28 00:48:59;;;;;;;20.50;5.65;;;;;;;;;;5013849;28;20018;-64
2021/07/28 00:51:24;;;;;;;24.92;6.35;;;;;;;;;;5014330;28;20084;-64
2021/07/28 00:53:51;;;;;;;22.08;6.80;;;;;;;;;;5014174;28;20065;-64
2021/07/28 00:56:18;;;;;;;19.40;5.70;;;;;;;;;;5014207;28;20414;-64
2021/07/28 00:58:44;;;;;;;19.48;5.80;;;;;;;;;;5013935;28;20052;-64
2021/07/28 01:01:10;;;;;;;14.65;5.70;;;;;;;;;;5013806;28;20359;-64
2021/07/28 01:03:35;;;;;;;17.75;5.70;;;;;;;;;;4995795;28;20084;-64
2021/07/28 01:06:01;;;;;;;25.63;6.15;;;;;;;;;;5021783;28;20847;-64
2021/07/28 01:08:27;;;;;;;18.88;7.03;;;;;;;;;;5033595;28;20024;-64
2021/07/28 01:10:57;;;;;;;18.60;5.60;;;;;;;;;;5033498;28;20022;-64
2021/07/28 01:13:30;;;;;;;18.88;6.22;;;;;;;;;;5033629;28;20076;-64
2021/07/28 01:16:01;;;;;;;26.00;5.53;;;;;;;;;;5015623;28;20079;-64
2021/07/28 01:18:26;;;;;;;18.48;5.72;;;;;;;;;;5033392;28;20048;-64
2021/07/28 01:20:53;;;;;;;23.40;6.40;;;;;;;;;;5033267;28;20428;-64
2021/07/28 01:23:19;;;;;;;15.20;5.95;;;;;;;;;;5033543;28;20017;-64
2021/07/28 01:25:46;;;;;;;21.17;6.32;;;;;;;;;;5033115;28;20033;-64
2021/07/28 01:28:12;;;;;;;31.92;7.00;;;;;;;;;;5033190;28;20018;-64
2021/07/28 01:30:38;;;;;;;16.48;6.05;;;;;;;;;;5033104;28;20068;-64
2021/07/28 01:33:05;;;;;;;21.92;5.63;;;;;;;;;;5032418;28;20025;-64
2021/07/28 01:35:34;;;;;;;31.83;7.68;;;;;;;;;;5032937;28;20040;-64
2021/07/28 01:38:00;;;;;;;24.08;6.95;;;;;;;;;;5033039;28;20017;-64
2021/07/28 01:40:26;;;;;;;28.70;7.65;;;;;;;;;;5033448;28;20033;-64
2021/07/28 01:42:51;;;;;;;32.05;7.57;;;;;;;;;;5032933;28;20017;-63
2021/07/28 01:45:17;;;;;;;20.63;6.40;;;;;;;;;;5033234;28;20013;-64
2021/07/28 01:47:44;;;;;;;22.30;6.25;;;;;;;;;;5033041;28;20037;-64
2021/07/28 01:50:11;;;;;;;26.35;7.22;;;;;;;;;;5033388;28;20472;-64
2021/07/28 01:52:36;;;;;;;17.73;6.53;;;;;;;;;;5034286;28;20025;-64
2021/07/28 01:55:02;;;;;;;20.33;6.97;;;;;;;;;;5032518;28;20389;-64
2021/07/28 01:57:28;;;;;;;19.08;6.28;;;;;;;;;;5032732;28;20108;-64
2021/07/28 01:59:54;;;;;;;23.88;7.13;;;;;;;;;;5032673;28;20114;-64
2021/07/28 02:02:20;;;;;;;29.25;7.55;;;;;;;;;;5032869;28;20021;-64
2021/07/28 02:04:46;;;;;;;18.20;6.78;;;;;;;;;;5032412;28;20537;-64
2021/07/28 02:07:12;;;;;;;27.65;8.27;;;;;;;;;;5035266;28;20020;-64
2021/07/28 02:09:38;;;;;;;23.83;7.82;;;;;;;;;;5037872;28;20014;-64
2021/07/28 02:12:04;;;;;;;17.88;6.38;;;;;;;;;;5038362;28;20441;-64
2021/07/28 02:14:30;;;;;;;17.98;6.00;;;;;;;;;;5040708;28;20096;-64
2021/07/28 02:16:56;;;;;;;22.05;6.80;;;;;;;;;;5040971;28;20053;-64
2021/07/28 02:19:22;;;;;;;16.17;5.80;;;;;;;;;;5039432;28;20044;-64
2021/07/28 02:21:48;;;;;;;15.65;5.85;;;;;;;;;;5033938;28;20104;-64
2021/07/28 02:24:14;;;;;;;26.58;7.32;;;;;;;;;;5033191;28;20053;-64
2021/07/28 02:26:40;;;;;;;24.70;7.53;;;;;;;;;;5033104;28;20058;-64
2021/07/28 02:29:05;;;;;;;17.92;6.25;;;;;;;;;;5033484;28;20096;-65
2021/07/28 02:31:31;;;;;;;19.08;6.28;;;;;;;;;;5032940;28;20504;-64
2021/07/28 02:33:57;;;;;;;20.50;7.15;;;;;;;;;;5032946;28;20014;-64
2021/07/28 02:36:22;;;;;;;21.17;6.68;;;;;;;;;;5033133;28;20030;-65
2021/07/28 02:38:48;;;;;;;34.42;7.15;;;;;;;;;;5033042;28;20067;-64
2021/07/28 02:41:14;;;;;;;17.65;5.88;;;;;;;;;;5032508;28;20398;-64
2021/07/28 02:43:39;;;;;;;21.70;6.28;;;;;;;;;;5033817;28;20021;-64
2021/07/28 02:46:06;;;;;;;23.08;6.68;;;;;;;;;;5036364;28;20528;-64
2021/07/28 02:48:32;;;;;;;24.70;6.60;;;;;;;;;;5036537;28;20028;-64
2021/07/28 02:50:58;;;;;;;24.73;6.32;;;;;;;;;;5036239;28;20374;-64
2021/07/28 02:53:24;;;;;;;20.05;6.10;;;;;;;;;;5036437;28;20025;-64
2021/07/28 02:55:51;;;;;;;19.23;6.10;;;;;;;;;;5036218;28;20505;-64
2021/07/28 02:58:17;;;;;;;16.63;6.07;;;;;;;;;;5036612;28;20404;-64
2021/07/28 03:00:43;;;;;;;17.60;5.88;;;;;;;;;;5035854;28;20027;-64
2021/07/28 03:03:08;;;;;;;24.55;6.75;;;;;;;;;;5035651;28;20049;-64
2021/07/28 03:05:34;;;;;;;22.92;7.82;;;;;;;;;;5034783;28;20018;-64
2021/07/28 03:08:00;;;;;;;16.48;6.45;;;;;;;;;;5035779;28;20072;-64
2021/07/28 03:10:26;;;;;;;22.73;6.75;;;;;;;;;;5035932;28;20017;-64
2021/07/28 03:12:52;;;;;;;15.80;6.20;;;;;;;;;;5035628;28;20018;-64
2021/07/28 03:15:17;;;;;;;20.42;6.07;;;;;;;;;;5035922;28;20101;-64
2021/07/28 03:17:43;;;;;;;17.23;6.57;;;;;;;;;;5035984;28;20565;-64
2021/07/28 03:20:09;;;;;;;21.75;6.30;;;;;;;;;;5035910;28;20485;-64
2021/07/28 03:22:35;;;;;;;25.02;6.78;;;;;;;;;;5035746;28;20379;-64
2021/07/28 03:25:01;;;;;;;23.80;8.13;;;;;;;;;;5035384;28;20427;-64
2021/07/28 03:27:27;;;;;;;13.05;5.85;;;;;;;;;;5035542;28;20104;-64
2021/07/28 03:29:53;;;;;;;21.13;6.85;;;;;;;;;;5035202;28;20078;-64
2021/07/28 03:32:20;;;;;;;23.98;5.95;;;;;;;;;;5035469;28;20508;-64
2021/07/28 03:34:45;;;;;;;14.75;6.25;;;;;;;;;;5035085;28;20486;-64
2021/07/28 03:37:11;;;;;;;16.65;6.78;;;;;;;;;;5035200;28;20045;-64
2021/07/28 03:39:37;;;;;;;19.92;6.38;;;;;;;;;;5035305;28;20474;-64
2021/07/28 03:42:04;;;;;;;24.90;6.60;;;;;;;;;;5035340;28;20029;-64
2021/07/28 03:44:30;;;;;;;14.90;5.70;;;;;;;;;;5035111;28;20029;-64
2021/07/28 03:46:56;;;;;;;23.90;8.30;;;;;;;;;;5035321;28;20119;-64
2021/07/28 03:49:22;;;;;;;36.75;7.68;;;;;;;;;;5035109;28;20010;-64
2021/07/28 03:51:48;;;;;;;40.40;7.90;;;;;;;;;;5034966;28;20381;-64
2021/07/28 03:54:14;;;;;;;32.72;8.02;;;;;;;;;;5034802;28;20024;-64
2021/07/28 03:56:39;;;;;;;34.60;7.57;;;;;;;;;;5034930;28;20059;-64
2021/07/28 03:59:05;;;;;;;22.27;7.22;;;;;;;;;;5034490;28;20438;-64
2021/07/28 04:01:31;;;;;;;20.90;6.32;;;;;;;;;;5035067;28;20021;-64
2021/07/28 04:03:57;;;;;;;23.42;6.50;;;;;;;;;;5021715;28;20060;-64
2021/07/28 04:06:24;;;;;;;21.70;6.82;;;;;;;;;;5015069;28;20090;-64
2021/07/28 04:08:49;;;;;;;21.83;6.53;;;;;;;;;;5014955;28;20018;-64
2021/07/28 04:11:15;;;;;;;21.42;5.50;;;;;;;;;;5014659;28;20401;-64
2021/07/28 04:13:42;;;;;;;30.48;7.60;;;;;;;;;;5014843;28;20094;-64
2021/07/28 04:16:08;;;;;;;18.63;6.82;;;;;;;;;;5014913;28;20126;-64
2021/07/28 04:18:34;;;;;;;23.80;6.63;;;;;;;;;;4997046;28;20378;-64
2021/07/28 04:20:59;;;;;;;28.30;7.32;;;;;;;;;;5014456;28;20093;-64
2021/07/28 04:23:26;;;;;;;18.25;6.47;;;;;;;;;;5014798;28;20022;-64
2021/07/28 04:25:52;;;;;;;31.30;6.35;;;;;;;;;;5014547;28;20018;-64
2021/07/28 04:28:18;;;;;;;26.63;6.00;;;;;;;;;;5014525;28;20072;-64
2021/07/28 04:30:43;;;;;;;21.83;7.15;;;;;;;;;;5014196;28;20026;-64
2021/07/28 04:33:09;;;;;;;21.73;6.68;;;;;;;;;;5014498;28;20018;-64
2021/07/28 04:35:35;;;;;;;17.33;5.68;;;;;;;;;;5014408;28;20120;-64
2021/07/28 04:38:02;;;;;;;22.77;6.70;;;;;;;;;;4996736;28;20486;-64
2021/07/28 04:40:27;;;;;;;17.25;6.38;;;;;;;;;;5014516;28;20113;-64
2021/07/28 04:42:54;;;;;;;14.57;6.07;;;;;;;;;;5013903;28;20522;-64
2021/07/28 04:45:20;;;;;;;18.55;6.88;;;;;;;;;;5014292;28;20022;-64
2021/07/28 04:47:46;;;;;;;24.38;8.13;;;;;;;;;;5014044;28;20493;-64
2021/07/28 04:50:12;;;;;;;24.73;6.50;;;;;;;;;;5014177;28;20029;-64
2021/07/28 04:52:38;;;;;;;21.52;7.28;;;;;;;;;;5014160;28;20471;-64
2021/07/28 04:55:04;;;;;;;28.83;8.68;;;;;;;;;;5013651;28;20079;-64
2021/07/28 04:57:31;;;;;;;23.40;7.65;;;;;;;;;;5013967;28;20026;-64
2021/07/28 04:59:57;;;;;;;30.88;7.10;;;;;;;;;;5013874;28;20467;-64
2021/07/28 05:02:25;;;;;;;32.55;7.40;;;;;;;;;;5013715;28;20014;-64
2021/07/28 05:05:01;;;;;;;34.83;8.88;;;;;;;;;;5074073;23;20045;-64
2021/07/28 05:07:27;;;;;;;25.60;6.45;;;;;;;;;;5032834;28;20032;-64
2021/07/28 05:09:53;;;;;;;35.28;8.18;;;;;;;;;;5033329;28;20051;-64
2021/07/28 05:12:19;;;;;;;34.38;8.02;;;;;;;;;;5033362;28;20425;-64
2021/07/28 05:14:46;;;;;;;26.55;8.85;;;;;;;;;;5033292;28;20025;-64
2021/07/28 05:17:12;;;;;;;29.55;7.80;;;;;;;;;;5015446;28;20033;-64
2021/07/28 05:19:37;;;;;;;45.70;9.20;;;;;;;;;;5033092;28;20009;-64
2021/07/28 05:22:03;;;;;;;33.03;9.02;;;;;;;;;;5032143;28;20016;-65
2021/07/28 05:24:29;;;;;;;34.42;8.85;;;;;;;;;;5028168;28;20022;-65
2021/07/28 05:26:54;;;;;;;22.65;6.63;;;;;;;;;;5026043;28;20102;-64
2021/07/28 05:29:20;;;;;;;28.48;7.80;;;;;;;;;;5028563;28;20474;-64
2021/07/28 05:31:45;;;;;;;41.72;8.27;;;;;;;;;;5027533;28;20018;-64
2021/07/28 05:34:11;;;;;;;30.85;7.05;;;;;;;;;;5031131;28;20539;-64
2021/07/28 05:36:37;;;;;;;48.53;8.15;;;;;;;;;;5020688;28;20477;-64
2021/07/28 05:39:03;;;;;;;28.75;8.23;;;;;;;;;;5014375;28;20496;-65
2021/07/28 05:41:28;;;;;;;37.83;8.50;;;;;;;;;;5030939;28;20021;-64
2021/07/28 05:43:54;;;;;;;45.70;10.13;;;;;;;;;;5020804;28;20025;-64
2021/07/28 05:46:19;;;;;;;35.60;8.50;;;;;;;;;;5033858;28;20116;-64
2021/07/28 05:48:45;;;;;;;34.47;7.75;;;;;;;;;;5014699;28;20552;-64
2021/07/28 05:51:11;;;;;;;43.47;8.45;;;;;;;;;;5031118;28;20478;-76
2021/07/28 05:53:37;;;;;;;25.52;7.10;;;;;;;;;;5031958;28;20043;-61
2021/07/28 05:56:03;;;;;;;33.83;7.75;;;;;;;;;;5031564;28;20382;-64
2021/07/28 05:58:28;;;;;;;29.83;7.20;;;;;;;;;;5031085;28;20017;-61
2021/07/28 06:00:53;;;;;;;27.20;7.03;;;;;;;;;;5032414;28;20025;-64
2021/07/28 06:03:19;;;;;;;26.33;6.47;;;;;;;;;;5032345;28;20044;-62
2021/07/28 06:05:44;;;;;;;32.47;6.75;;;;;;;;;;4998552;28;20603;-65
2021/07/28 06:08:10;;;;;;;41.30;9.15;;;;;;;;;;4998754;28;20422;-62
2021/07/28 06:10:35;;;;;;;26.88;7.10;;;;;;;;;;5010521;28;20471;-63
2021/07/28 06:13:01;;;;;;;33.35;7.45;;;;;;;;;;5011559;28;20026;-62
2021/07/28 06:15:26;;;;;;;34.13;6.57;;;;;;;;;;5012206;28;20030;-61
2021/07/28 06:17:52;;;;;;;25.23;6.13;;;;;;;;;;5013273;28;20014;-60
2021/07/28 06:20:19;;;;;;;23.95;7.65;;;;;;;;;;5016427;28;20022;-60
2021/07/28 06:22:45;;;;;;;33.95;7.82;;;;;;;;;;5016555;28;20386;-62
2021/07/28 06:25:11;;;;;;;26.55;6.45;;;;;;;;;;4999147;28;20025;-60
2021/07/28 06:27:36;;;;;;;23.42;7.18;;;;;;;;;;5015797;28;20041;-62
2021/07/28 06:30:02;;;;;;;35.72;7.68;;;;;;;;;;5015865;28;20417;-62
2021/07/28 06:32:28;;;;;;;27.45;6.78;;;;;;;;;;5017094;28;20028;-63
2021/07/28 06:34:54;;;;;;;26.63;6.72;;;;;;;;;;5019551;28;20033;-62
2021/07/28 06:37:19;;;;;;;26.80;6.63;;;;;;;;;;5022356;28;20406;-62
2021/07/28 06:39:44;;;;;;;24.23;6.53;;;;;;;;;;5025961;28;20041;-64
2021/07/28 06:42:10;;;;;;;29.30;6.95;;;;;;;;;;5038210;28;20037;-64
2021/07/28 06:44:35;;;;;;;32.20;6.25;;;;;;;;;;5036634;28;20049;-75
2021/07/28 06:47:02;;;;;;;29.83;6.65;;;;;;;;;;5030025;28;20029;-63
2021/07/28 06:49:27;;;;;;;24.67;6.43;;;;;;;;;;5016748;28;20017;-61
2021/07/28 06:51:52;;;;;;;35.97;6.90;;;;;;;;;;5017159;28;20018;-75
2021/07/28 06:54:18;;;;;;;53.20;7.85;;;;;;;;;;5014428;28;20065;-62
2021/07/28 06:56:43;;;;;;;18.55;6.50;;;;;;;;;;5008161;28;20029;-62
2021/07/28 06:59:09;;;;;;;26.02;6.03;;;;;;;;;;5009977;28;20475;-61
2021/07/28 07:01:34;;;;;;;25.48;6.68;;;;;;;;;;5013539;28;20017;-67
2021/07/28 07:04:00;;;;;;;23.92;5.72;;;;;;;;;;5014186;28;20050;-66
2021/07/28 07:06:26;;;;;;;22.33;6.13;;;;;;;;;;5012321;28;20117;-65
2021/07/28 07:08:51;;;;;;;25.77;6.03;;;;;;;;;;5029959;28;20061;-64
2021/07/28 07:11:16;;;;;;;32.35;6.75;;;;;;;;;;5017870;28;20088;-63
2021/07/28 07:13:42;;;;;;;34.92;7.13;;;;;;;;;;5005734;28;20030;-65
2021/07/28 07:16:07;;;;;;;24.38;7.03;;;;;;;;;;5013642;28;20038;-66
2021/07/28 07:18:33;;;;;;;38.55;7.90;;;;;;;;;;5013490;28;20072;-69
2021/07/28 07:20:58;;;;;;;20.95;6.05;;;;;;;;;;5006975;28;20045;-61
2021/07/28 07:23:25;;;;;;;25.25;5.80;;;;;;;;;;5010930;28;20021;-60
2021/07/28 07:25:50;;;;;;;30.25;6.78;;;;;;;;;;5011302;28;20026;-71
2021/07/28 07:28:15;;;;;;;22.73;6.70;;;;;;;;;;5015504;28;20033;-67
2021/07/28 07:30:41;;;;;;;28.00;6.85;;;;;;;;;;4983682;28;20030;-67
2021/07/28 07:35:50;;;;;;;38.58;6.80;;;;;;;;;;5015415;28;20033;-69
2021/07/28 07:38:16;;;;;;;32.75;7.20;;;;;;;;;;5010495;28;20026;-70
2021/07/28 07:40:42;;;;;;;33.33;7.28;;;;;;;;;;4996390;28;20431;-64
2021/07/28 07:43:11;;;;;;;39.95;7.38;;;;;;;;;;5014944;28;20067;-64
2021/07/28 07:45:40;;;;;;;21.60;6.57;;;;;;;;;;5012452;28;20029;-70
2021/07/28 07:48:06;;;;;;;33.33;6.43;;;;;;;;;;4997782;28;20156;-69
2021/07/28 07:50:35;;;;;;;19.92;6.40;;;;;;;;;;5009049;28;20026;-72
2021/07/28 07:53:00;;;;;;;36.92;8.43;;;;;;;;;;5013817;28;20355;-71
2021/07/28 07:55:26;;;;;;;24.27;6.82;;;;;;;;;;4996349;28;20029;-69
2021/07/28 07:57:51;;;;;;;22.33;5.78;;;;;;;;;;5011182;28;21775;-63
2021/07/28 08:00:17;;;;;;;23.50;6.90;;;;;;;;;;5001147;28;20437;-61
2021/07/28 08:02:42;;;;;;;26.08;7.75;;;;;;;;;;5012014;28;20091;-61
2021/07/28 08:05:08;;;;;;;27.42;7.45;;;;;;;;;;5013930;28;20081;-61
2021/07/28 08:07:34;;;;;;;27.15;5.95;;;;;;;;;;5013920;28;20026;-70
2021/07/28 08:09:59;;;;;;;24.40;5.93;;;;;;;;;;5014051;28;20034;-70
2021/07/28 08:12:24;;;;;;;27.38;5.57;;;;;;;;;;4996694;28;20022;-70
2021/07/28 08:14:50;;;;;;;22.52;6.13;;;;;;;;;;5013611;28;20010;-65
2021/07/28 08:17:16;;;;;;;20.58;6.10;;;;;;;;;;5014163;28;20072;-65
2021/07/28 08:19:42;;;;;;;22.15;6.07;;;;;;;;;;5013816;28;20033;-71
2021/07/28 08:22:07;;;;;;;23.17;6.03;;;;;;;;;;4965937;28;20026;-70
2021/07/28 08:24:32;;;;;;;22.75;5.63;;;;;;;;;;5011639;28;20022;-69
2021/07/28 08:26:58;;;;;;;16.92;6.15;;;;;;;;;;5008485;28;20478;-64
2021/07/28 08:29:23;;;;;;;19.27;5.35;;;;;;;;;;5009021;28;20112;-65
2021/07/28 08:31:52;;;;;;;21.08;6.03;;;;;;;;;;4979628;28;20029;-65
2021/07/28 08:34:17;;;;;;;15.15;5.35;;;;;;;;;;5013062;28;20029;-72
2021/07/28 08:36:43;;;;;;;25.48;5.63;;;;;;;;;;4995383;28;20038;-70
2021/07/28 08:39:09;;;;;;;26.88;6.10;;;;;;;;;;5011687;28;20026;-76
2021/07/28 08:41:35;;;;;;;35.13;6.00;;;;;;;;;;5009251;28;20029;-73
2021/07/28 08:44:01;;;;;;;27.30;6.97;;;;;;;;;;5012996;28;20133;-73
2021/07/28 08:46:28;;;;;;;39.92;6.88;;;;;;;;;;5012500;28;20104;-65
2021/07/28 08:48:54;;;;;;;28.58;6.65;;;;;;;;;;5011048;28;20687;-66
2021/07/28 08:51:25;;;;;;;25.13;5.78;;;;;;;;;;4994702;28;20117;-66
2021/07/28 08:53:50;;;;;;;26.58;6.95;;;;;;;;;;5011611;28;20048;-66
2021/07/28 08:56:16;;;;;;;32.58;6.03;;;;;;;;;;5011785;28;20030;-70
2021/07/28 08:58:42;;;;;;;27.35;5.95;;;;;;;;;;4977549;28;20057;-65
2021/07/28 09:01:07;;;;;;;65.75;8.88;;;;;;;;;;4993933;28;20490;-65
2021/07/28 09:03:32;;;;;;;26.05;6.28;;;;;;;;;;5011609;28;20513;-64
2021/07/28 09:05:59;;;;;;;25.38;6.18;;;;;;;;;;5012371;28;20084;-63
2021/07/28 09:08:32;;;;;;;17.60;5.13;;;;;;;;;;5012082;28;20486;-65
2021/07/28 09:10:59;;;;;;;28.48;6.30;;;;;;;;;;5011888;28;20026;-69
2021/07/28 09:13:26;;;;;;;26.08;5.43;;;;;;;;;;4973419;28;20491;-67
2021/07/28 09:15:53;;;;;;;25.33;6.80;;;;;;;;;;5006022;28;20506;-68
2021/07/28 09:18:37;;;;;;;28.35;6.43;;;;;;;;;;5012025;28;20387;-69
2021/07/28 09:21:04;;;;;;;17.80;5.90;;;;;;;;;;5011270;28;20096;-68
2021/07/28 09:23:35;;;;;;;18.90;6.13;;;;;;;;;;5012620;28;20021;-66
2021/07/28 09:26:04;;;;;;;17.20;4.85;;;;;;;;;;5013137;28;20013;-63
2021/07/28 09:28:29;;;;;;;19.10;6.20;;;;;;;;;;5012702;28;20425;-64
2021/07/28 09:30:55;;;;;;;21.67;5.15;;;;;;;;;;5012054;28;20109;-68
2021/07/28 09:33:20;;;;;;;24.80;6.65;;;;;;;;;;5012803;28;20030;-69
2021/07/28 09:35:58;;;;;;;15.13;4.70;;;;;;;;;;5014310;28;20105;-66
2021/07/28 09:38:30;;;;;;;21.27;5.10;;;;;;;;;;5011519;28;20113;-65
2021/07/28 09:41:03;;;;;;;22.75;4.53;;;;;;;;;;5012283;28;20080;-64
2021/07/28 09:43:29;;;;;;;84.30;7.60;;;;;;;;;;5012041;28;20045;-62
2021/07/28 09:45:55;;;;;;;14.13;4.53;;;;;;;;;;5012186;28;20467;-63
2021/07/28 09:48:36;;;;;;;14.25;4.95;;;;;;;;;;5013665;28;20025;-70
2021/07/28 09:51:20;;;;;;;16.10;4.30;;;;;;;;;;5018797;28;20109;-67
2021/07/28 09:53:46;;;;;;;23.88;4.63;;;;;;;;;;5017390;28;20017;-66
2021/07/28 09:56:21;;;;;;;22.10;5.28;;;;;;;;;;5025982;28;20047;-65
2021/07/28 09:58:47;;;;;;;10.70;3.78;;;;;;;;;;5001996;28;20026;-61
2021/07/28 10:01:13;;;;;;;14.45;4.03;;;;;;;;;;5022686;28;20458;-69
2021/07/28 10:03:39;;;;;;;13.13;3.85;;;;;;;;;;5001737;28;20054;-69
2021/07/28 10:06:05;;;;;;;10.77;4.20;;;;;;;;;;5017978;28;20387;-66
2021/07/28 10:08:30;;;;;;;12.93;4.22;;;;;;;;;;5014555;28;20028;-62
2021/07/28 10:10:56;;;;;;;9.30;3.90;;;;;;;;;;5019845;28;20018;-63
2021/07/28 10:13:21;;;;;;;10.10;3.80;;;;;;;;;;5022655;28;20029;-68
2021/07/28 10:15:47;;;;;;;13.95;3.80;;;;;;;;;;5022641;28;20033;-65
2021/07/28 10:18:14;;;;;;;14.68;4.45;;;;;;;;;;5012603;28;20053;-63
2021/07/28 10:20:40;;;;;;;14.83;3.93;;;;;;;;;;5010398;28;20026;-68
2021/07/28 10:23:05;;;;;;;19.17;4.30;;;;;;;;;;5012233;28;20247;-64
2021/07/28 10:25:31;;;;;;;12.93;4.78;;;;;;;;;;5012101;28;20509;-63
2021/07/28 10:27:57;;;;;;;20.73;4.68;;;;;;;;;;5017263;28;20010;-70
2021/07/28 10:30:23;;;;;;;18.23;5.03;;;;;;;;;;5003756;28;20029;-62
2021/07/28 10:32:48;;;;;;;11.98;4.05;;;;;;;;;;5000393;28;20026;-69
2021/07/28 10:35:23;;;;;;;16.90;4.95;;;;;;;;;;5028399;28;20482;-66
2021/07/28 10:37:49;;;;;;;16.10;4.75;;;;;;;;;;5032543;28;20022;-65
2021/07/28 10:40:28;;;;;;;19.42;4.75;;;;;;;;;;5030658;28;20040;-64
2021/07/28 10:43:00;;;;;;;14.52;4.82;;;;;;;;;;4992839;28;20034;-64
2021/07/28 10:45:26;;;;;;;22.63;3.72;;;;;;;;;;5002036;28;20048;-67
2021/07/28 10:47:52;;;;;;;21.17;4.18;;;;;;;;;;5010991;28;20478;-75
2021/07/28 10:50:29;;;;;;;11.63;3.95;;;;;;;;;;5011470;28;20064;-74
2021/07/28 10:52:56;;;;;;;13.05;4.00;;;;;;;;;;4993926;28;20002;-65
2021/07/28 10:55:38;;;;;;;11.02;4.28;;;;;;;;;;5009165;28;20484;-68
2021/07/28 10:58:19;;;;;;;13.63;4.10;;;;;;;;;;5019357;28;20086;-70
2021/07/28 11:00:45;;;;;;;12.73;3.40;;;;;;;;;;5022791;28;20033;-65
2021/07/28 11:03:13;;;;;;;14.38;4.85;;;;;;;;;;5026161;28;20045;-68
2021/07/28 11:05:39;;;;;;;16.10;4.07;;;;;;;;;;5036756;28;20061;-69
2021/07/28 11:08:13;;;;;;;19.02;4.22;;;;;;;;;;5034932;28;20037;-66
2021/07/28 11:10:39;;;;;;;11.82;4.45;;;;;;;;;;5031541;28;20021;-67
2021/07/28 11:13:05;;;;;;;18.70;4.30;;;;;;;;;;5015816;28;20095;-65
2021/07/28 11:15:31;;;;;;;11.48;3.90;;;;;;;;;;5020641;28;20389;-67
2021/07/28 11:17:56;;;;;;;16.27;3.90;;;;;;;;;;5015378;28;20022;-65
2021/07/28 11:20:28;;;;;;;17.17;4.50;;;;;;;;;;5013035;28;20125;-70
2021/07/28 11:23:12;;;;;;;10.48;3.90;;;;;;;;;;5025086;28;20111;-62
2021/07/28 11:25:38;;;;;;;20.02;4.45;;;;;;;;;;5013925;28;20550;-62
2021/07/28 11:28:04;;;;;;;15.88;3.65;;;;;;;;;;5013679;28;20022;-63
2021/07/28 11:30:29;;;;;;;24.90;5.05;;;;;;;;;;5014796;28;20783;-65
2021/07/28 11:33:11;;;;;;;15.77;4.50;;;;;;;;;;5015402;28;20083;-73
2021/07/28 11:35:40;;;;;;;16.00;4.78;;;;;;;;;;4991154;28;20450;-63
2021/07/28 11:38:13;;;;;;;19.90;4.63;;;;;;;;;;5013578;28;20030;-64
2021/07/28 11:40:42;;;;;;;16.65;4.10;;;;;;;;;;5013287;28;20482;-63
2021/07/28 11:43:26;;;;;;;17.63;4.53;;;;;;;;;;5013406;28;20041;-67
2021/07/28 11:45:52;;;;;;;11.45;3.67;;;;;;;;;;5007496;28;20451;-67
2021/07/28 11:48:35;;;;;;;15.98;4.00;;;;;;;;;;5012507;28;20065;-64
2021/07/28 11:51:07;;;;;;;12.05;4.45;;;;;;;;;;5010377;28;20028;-63
2021/07/28 11:53:33;;;;;;;14.23;4.38;;;;;;;;;;5013277;28;20029;-63
2021/07/28 11:56:11;;;;;;;16.67;4.47;;;;;;;;;;5012100;28;20387;-65
2021/07/28 11:58:41;;;;;;;16.77;4.28;;;;;;;;;;5013340;28;20017;-64
2021/07/28 12:01:25;;;;;;;10.95;3.85;;;;;;;;;;5013074;28;20506;-64
2021/07/28 12:03:52;;;;;;;21.92;4.38;;;;;;;;;;5011900;28;20077;-64
2021/07/28 12:06:36;;;;;;;13.75;4.93;;;;;;;;;;5012871;28;20028;-63
2021/07/28 12:09:09;;;;;;;19.55;5.20;;;;;;;;;;5013038;28;20104;-60
2021/07/28 12:11:53;;;;;;;8.30;3.92;;;;;;;;;;5012456;28;20347;-61
2021/07/28 12:14:40;;;;;;;13.50;4.18;;;;;;;;;;5009315;28;20014;-61
2021/07/28 12:17:07;;;;;;;21.33;4.88;;;;;;;;;;4994097;28;20042;-60
2021/07/28 12:19:39;;;;;;;13.32;4.13;;;;;;;;;;5009438;28;20509;-64
2021/07/28 12:22:12;;;;;;;53.58;4.90;;;;;;;;;;5008341;28;20034;-62
2021/07/28 12:24:43;;;;;;;13.55;4.35;;;;;;;;;;5019876;28;20092;-60
2021/07/28 12:27:27;;;;;;;19.02;4.43;;;;;;;;;;5017468;28;20026;-61
2021/07/28 12:30:04;;;;;;;21.45;4.55;;;;;;;;;;5012403;28;20045;-61
2021/07/28 12:32:34;;;;;;;10.25;3.63;;;;;;;;;;5012663;28;20084;-62
2021/07/28 12:35:27;;;;;;;12.50;4.80;;;;;;;;;;5012918;28;20503;-61
2021/07/28 12:38:05;;;;;;;24.63;5.40;;;;;;;;;;4991542;28;20034;-66
2021/07/28 12:40:30;;;;;;;22.63;4.43;;;;;;;;;;5011219;28;20022;-65
2021/07/28 12:42:56;;;;;;;11.45;4.28;;;;;;;;;;5012923;28;21009;-68
2021/07/28 12:45:22;;;;;;;18.23;4.30;;;;;;;;;;5013352;28;20414;-68
2021/07/28 12:47:48;;;;;;;20.15;5.38;;;;;;;;;;5013035;28;20018;-67
2021/07/28 12:50:13;;;;;;;19.83;5.10;;;;;;;;;;5011461;28;20024;-70
2021/07/28 12:52:39;;;;;;;19.35;4.30;;;;;;;;;;5010806;28;20037;-62
2021/07/28 12:55:04;;;;;;;10.45;4.38;;;;;;;;;;5011312;28;20391;-62
2021/07/28 12:57:30;;;;;;;18.20;4.43;;;;;;;;;;5011776;28;20486;-71
2021/07/28 12:59:55;;;;;;;20.00;4.00;;;;;;;;;;5011484;28;20022;-66
2021/07/28 13:02:21;;;;;;;12.13;3.50;;;;;;;;;;5012239;28;20448;-70
2021/07/28 13:04:46;;;;;;;23.13;4.18;;;;;;;;;;5011047;28;20048;-64
2021/07/28 13:07:16;;;;;;;10.40;3.85;;;;;;;;;;5013811;28;20045;-64
2021/07/28 13:09:42;;;;;;;12.63;3.92;;;;;;;;;;5007150;28;20030;-70
2021/07/28 13:12:08;;;;;;;16.83;4.65;;;;;;;;;;5012452;28;20068;-67
2021/07/28 13:14:33;;;;;;;14.35;3.83;;;;;;;;;;5011640;28;20112;-67
2021/07/28 13:16:58;;;;;;;19.00;5.43;;;;;;;;;;5009607;28;20123;-67
2021/07/28 13:19:24;;;;;;;18.67;4.50;;;;;;;;;;5011773;28;20036;-67
2021/07/28 13:21:49;;;;;;;17.02;4.95;;;;;;;;;;5010988;28;20022;-70
2021/07/28 13:24:15;;;;;;;17.63;4.40;;;;;;;;;;5011982;28;20026;-67
2021/07/28 13:26:40;;;;;;;14.70;4.10;;;;;;;;;;5012150;28;20451;-67
2021/07/28 13:29:05;;;;;;;23.77;4.68;;;;;;;;;;5012318;28;20041;-67
2021/07/28 13:31:31;;;;;;;12.77;3.85;;;;;;;;;;4993519;28;20083;-63
2021/07/28 13:33:57;;;;;;;16.42;4.28;;;;;;;;;;5010946;28;20064;-64
2021/07/28 13:36:23;;;;;;;19.85;4.65;;;;;;;;;;5012040;28;20084;-64
2021/07/28 13:38:48;;;;;;;13.23;4.13;;;;;;;;;;5011378;28;20375;-64
2021/07/28 13:41:14;;;;;;;18.23;4.18;;;;;;;;;;5009742;28;20025;-62
2021/07/28 13:43:39;;;;;;;14.50;4.10;;;;;;;;;;5010561;28;20478;-62
2021/07/28 13:46:05;;;;;;;15.43;3.70;;;;;;;;;;5011830;28;20069;-76
2021/07/28 13:48:32;;;;;;;16.45;4.22;;;;;;;;;;5011022;28;20036;-73
2021/07/28 13:50:59;;;;;;;14.18;3.15;;;;;;;;;;5009562;28;20018;-76
2021/07/28 13:53:25;;;;;;;19.67;4.60;;;;;;;;;;5010178;28;20029;-75
2021/07/28 13:55:50;;;;;;;11.48;4.20;;;;;;;;;;4996378;28;20060;-74
2021/07/28 13:58:15;;;;;;;19.20;3.97;;;;;;;;;;5012656;28;20037;-65
2021/07/28 14:00:41;;;;;;;16.63;4.22;;;;;;;;;;5012213;28;20516;-65
2021/07/28 14:03:08;;;;;;;12.88;3.80;;;;;;;;;;5011168;28;20082;-63
2021/07/28 14:05:35;;;;;;;16.65;3.80;;;;;;;;;;5012437;28;20366;-64
2021/07/28 14:08:00;;;;;;;19.65;4.03;;;;;;;;;;5012498;28;20022;-64
2021/07/28 14:10:26;;;;;;;11.85;3.63;;;;;;;;;;5011605;28;20018;-67
2021/07/28 14:12:51;;;;;;;18.60;4.85;;;;;;;;;;5011840;28;20064;-68
2021/07/28 14:15:16;;;;;;;14.23;3.67;;;;;;;;;;5011805;28;20026;-66
2021/07/28 14:17:42;;;;;;;17.52;4.05;;;;;;;;;;5011474;28;20061;-62
2021/07/28 14:20:07;;;;;;;13.70;4.40;;;;;;;;;;5011492;28;20017;-72
2021/07/28 14:22:34;;;;;;;14.93;4.55;;;;;;;;;;4983301;28;20455;-70
2021/07/28 14:24:59;;;;;;;18.25;3.97;;;;;;;;;;4991643;28;20021;-66
2021/07/28 14:27:24;;;;;;;29.40;11.40;;;;;;;;;;4993097;28;20026;-67
2021/07/28 14:29:50;;;;;;;14.32;5.18;;;;;;;;;;4992584;28;20011;-64
2021/07/28 14:32:15;;;;;;;17.65;5.18;;;;;;;;;;4992532;28;20050;-64
2021/07/28 14:34:41;;;;;;;14.20;5.28;;;;;;;;;;4992516;28;20472;-64
2021/07/28 14:37:08;;;;;;;13.95;4.38;;;;;;;;;;4992695;28;20033;-64